createdAt,value
2018-05-28T00:00:07.289Z,19.47
2018-05-28T00:01:08.097Z,19.55
2018-05-28T00:03:05.236Z,19.35
2018-05-28T00:04:05.234Z,19.37
2018-05-28T00:06:05.696Z,19.40
2018-05-28T00:07:06.197Z,19.40
2018-05-28T00:09:04.566Z,19.31
2018-05-28T00:10:03.635Z,19.37
2018-05-28T00:12:01.568Z,19.31
2018-05-28T00:13:01.589Z,19.25
2018-05-28T00:15:00.043Z,19.28
2018-05-28T00:15:59.537Z,19.40
2018-05-28T00:17:58.056Z,19.32
2018-05-28T00:18:57.497Z,19.30
2018-05-28T00:20:54.457Z,19.42
2018-05-28T00:21:54.496Z,19.42
2018-05-28T00:23:50.911Z,19.32
2018-05-28T00:24:50.406Z,19.35
2018-05-28T00:26:46.862Z,19.28
2018-05-28T00:27:46.382Z,19.28
2018-05-28T00:29:42.367Z,19.32
2018-05-28T00:30:42.313Z,19.28
2018-05-28T00:32:38.846Z,19.43
2018-05-28T00:33:38.805Z,19.42
2018-05-28T00:35:35.760Z,19.38
2018-05-28T00:36:34.279Z,19.40
2018-05-28T00:38:32.202Z,19.28
2018-05-28T00:39:32.167Z,19.24
2018-05-28T00:41:31.131Z,19.24
2018-05-28T00:42:30.646Z,19.28
2018-05-28T00:44:29.047Z,19.17
2018-05-28T00:45:29.050Z,19.15
2018-05-28T00:47:26.387Z,19.19
2018-05-28T00:48:26.385Z,19.19
2018-05-28T00:50:24.892Z,19.19
2018-05-28T00:51:25.359Z,19.10
2018-05-28T00:53:22.466Z,19.10
2018-05-28T00:54:22.488Z,19.10
2018-05-28T00:56:21.487Z,19.15
2018-05-28T00:57:20.445Z,19.02
2018-05-28T00:59:16.412Z,19.13
2018-05-28T01:00:16.402Z,19.13
2018-05-28T01:02:12.369Z,19.02
2018-05-28T01:03:12.869Z,19.05
2018-05-28T01:05:10.372Z,19.00
2018-05-28T01:06:10.334Z,18.93
2018-05-28T01:08:08.812Z,18.96
2018-05-28T01:09:08.550Z,18.96
2018-05-28T01:11:07.447Z,18.91
2018-05-28T01:12:06.384Z,18.86
2018-05-28T01:14:04.527Z,18.81
2018-05-28T01:15:05.344Z,18.84
2018-05-28T01:17:05.029Z,18.81
2018-05-28T01:18:05.002Z,18.84
2018-05-28T01:20:01.474Z,18.86
2018-05-28T01:21:01.052Z,18.89
2018-05-28T01:22:57.419Z,18.86
2018-05-28T01:23:56.956Z,18.93
2018-05-28T01:25:55.086Z,18.97
2018-05-28T01:26:55.892Z,18.96
2018-05-28T01:28:53.552Z,19.05
2018-05-28T01:29:54.057Z,19.02
2018-05-28T01:31:51.731Z,19.10
2018-05-28T01:32:51.177Z,19.15
2018-05-28T01:34:51.677Z,19.13
2018-05-28T01:35:51.657Z,19.13
2018-05-28T01:37:51.594Z,19.13
2018-05-28T01:38:50.525Z,19.13
2018-05-28T01:40:50.052Z,19.12
2018-05-28T01:41:50.575Z,19.16
2018-05-28T01:43:45.998Z,19.12
2018-05-28T01:44:46.071Z,19.09
2018-05-28T01:46:43.992Z,19.06
2018-05-28T01:47:44.504Z,19.10
2018-05-28T01:49:42.929Z,19.05
2018-05-28T01:50:43.938Z,18.89
2018-05-28T01:52:41.090Z,18.96
2018-05-28T01:53:42.051Z,18.91
2018-05-28T01:55:36.223Z,18.81
2018-05-28T01:56:36.201Z,18.82
2018-05-28T01:58:36.731Z,18.93
2018-05-28T01:59:36.683Z,18.89
2018-05-28T02:01:35.168Z,18.87
2018-05-28T02:02:34.797Z,18.78
2018-05-28T02:04:32.742Z,18.82
2018-05-28T02:05:32.744Z,18.86
2018-05-28T02:07:31.746Z,18.86
2018-05-28T02:08:30.695Z,18.91
2018-05-28T02:10:29.657Z,18.90
2018-05-28T02:11:28.831Z,18.75
2018-05-28T02:13:27.797Z,18.86
2018-05-28T02:14:27.859Z,18.76
2018-05-28T02:16:23.276Z,18.72
2018-05-28T02:17:22.744Z,18.68
2018-05-28T02:19:20.225Z,18.65
2018-05-28T02:20:18.689Z,18.63
2018-05-28T02:22:19.157Z,18.69
2018-05-28T02:23:19.149Z,18.69
2018-05-28T02:25:17.279Z,18.57
2018-05-28T02:26:17.271Z,18.66
2018-05-28T02:28:18.264Z,18.60
2018-05-28T02:29:17.757Z,18.51
2018-05-28T02:31:16.695Z,18.61
2018-05-28T02:32:16.711Z,18.59
2018-05-28T02:34:14.324Z,18.60
2018-05-28T02:35:13.980Z,18.50
2018-05-28T02:37:15.021Z,18.63
2018-05-28T02:38:11.931Z,18.60
2018-05-28T02:40:09.893Z,18.60
2018-05-28T02:41:09.917Z,18.57
2018-05-28T02:43:08.047Z,18.60
2018-05-28T02:44:09.950Z,18.47
2018-05-28T02:46:04.079Z,18.59
2018-05-28T02:47:05.051Z,18.49
2018-05-28T02:49:00.016Z,18.44
2018-05-28T02:49:59.967Z,18.41
2018-05-28T02:51:57.959Z,18.42
2018-05-28T02:52:58.932Z,18.44
2018-05-28T02:54:54.387Z,18.49
2018-05-28T02:55:53.903Z,18.47
2018-05-28T02:57:51.362Z,18.36
2018-05-28T02:58:49.830Z,18.42
2018-05-28T03:00:46.328Z,18.44
2018-05-28T03:01:45.814Z,18.41
2018-05-28T03:03:42.312Z,18.35
2018-05-28T03:04:41.772Z,18.38
2018-05-28T03:06:37.781Z,18.39
2018-05-28T03:07:37.725Z,18.41
2018-05-28T03:09:36.704Z,18.42
2018-05-28T03:10:36.735Z,18.41
2018-05-28T03:12:36.383Z,18.41
2018-05-28T03:13:36.311Z,18.44
2018-05-28T03:15:34.264Z,18.41
2018-05-28T03:16:34.307Z,18.36
2018-05-28T03:18:33.240Z,18.50
2018-05-28T03:19:32.708Z,18.39
2018-05-28T03:21:31.747Z,18.41
2018-05-28T03:22:30.129Z,18.45
2018-05-28T03:24:31.605Z,18.38
2018-05-28T03:25:28.137Z,18.41
2018-05-28T03:27:26.035Z,18.35
2018-05-28T03:28:26.059Z,18.44
2018-05-28T03:30:24.020Z,18.38
2018-05-28T03:31:24.008Z,18.45
2018-05-28T03:33:22.479Z,18.35
2018-05-28T03:34:22.480Z,18.36
2018-05-28T03:36:22.501Z,18.42
2018-05-28T03:37:23.432Z,18.38
2018-05-28T03:39:20.470Z,18.44
2018-05-28T03:40:20.450Z,18.38
2018-05-28T03:42:18.356Z,18.38
2018-05-28T03:43:17.363Z,18.32
2018-05-28T03:45:17.845Z,18.39
2018-05-28T03:46:18.340Z,18.44
2018-05-28T03:48:15.959Z,18.41
2018-05-28T03:49:15.945Z,18.38
2018-05-28T03:51:13.903Z,18.38
2018-05-28T03:52:13.920Z,18.36
2018-05-28T03:54:12.408Z,18.41
2018-05-28T03:55:11.880Z,18.44
2018-05-28T03:57:09.866Z,18.42
2018-05-28T03:58:10.836Z,18.39
2018-05-28T04:00:08.816Z,18.39
2018-05-28T04:01:07.784Z,18.38
2018-05-28T04:03:07.244Z,18.38
2018-05-28T04:04:06.740Z,18.44
2018-05-28T04:06:04.369Z,18.45
2018-05-28T04:07:04.415Z,18.49
2018-05-28T04:09:02.842Z,18.41
2018-05-28T04:10:02.011Z,18.38
2018-05-28T04:12:00.493Z,18.49
2018-05-28T04:13:00.478Z,18.42
2018-05-28T04:15:00.433Z,18.38
2018-05-28T04:16:00.959Z,18.42
2018-05-28T04:17:58.920Z,18.41
2018-05-28T04:18:58.411Z,18.45
2018-05-28T04:20:57.350Z,18.42
2018-05-28T04:21:56.530Z,18.45
2018-05-28T04:23:54.451Z,18.44
2018-05-28T04:24:54.490Z,18.42
2018-05-28T04:26:52.410Z,18.47
2018-05-28T04:27:52.449Z,18.50
2018-05-28T04:29:48.382Z,18.57
2018-05-28T04:30:48.376Z,18.63
2018-05-28T04:32:44.816Z,18.66
2018-05-28T04:33:44.295Z,18.71
2018-05-28T04:35:41.764Z,18.78
2018-05-28T04:36:41.257Z,18.72
2018-05-28T04:38:36.243Z,18.93
2018-05-28T04:39:36.241Z,19.00
2018-05-28T04:41:32.697Z,19.02
2018-05-28T04:42:32.247Z,19.09
2018-05-28T04:44:31.175Z,19.60
2018-05-28T04:45:30.356Z,19.78
2018-05-28T04:47:29.741Z,20.04
2018-05-28T04:48:28.247Z,20.11
2018-05-28T04:50:26.216Z,20.37
2018-05-28T04:51:24.709Z,20.51
2018-05-28T04:53:24.186Z,20.66
2018-05-28T04:54:22.327Z,20.72
2018-05-28T04:56:22.209Z,20.88
2018-05-28T04:57:20.317Z,20.98
2018-05-28T04:59:14.751Z,21.01
2018-05-28T05:00:14.738Z,21.12
2018-05-28T05:02:11.778Z,21.25
2018-05-28T05:03:10.704Z,21.36
2018-05-28T05:05:11.194Z,21.34
2018-05-28T05:06:12.086Z,21.37
2018-05-28T05:08:09.648Z,21.43
2018-05-28T05:09:09.334Z,21.49
2018-05-28T05:11:05.788Z,21.66
2018-05-28T05:12:05.232Z,21.49
2018-05-28T05:14:07.127Z,21.67
2018-05-28T05:15:06.284Z,21.66
2018-05-28T05:17:06.239Z,21.70
2018-05-28T05:18:06.277Z,21.66
2018-05-28T05:20:06.717Z,21.66
2018-05-28T05:21:07.181Z,21.64
2018-05-28T05:23:07.623Z,21.62
2018-05-28T05:24:09.250Z,21.71
2018-05-28T05:26:05.287Z,21.62
2018-05-28T05:27:05.363Z,21.59
2018-05-28T05:29:08.250Z,21.76
2018-05-28T05:30:05.721Z,21.80
2018-05-28T05:32:06.173Z,21.96
2018-05-28T05:33:07.190Z,21.94
2018-05-28T05:35:06.830Z,22.09
2018-05-28T05:36:06.746Z,22.00
2018-05-28T05:38:07.637Z,22.27
2018-05-28T05:39:07.684Z,22.34
2018-05-28T05:41:06.620Z,22.45
2018-05-28T05:42:05.645Z,22.55
2018-05-28T05:44:06.528Z,22.70
2018-05-28T05:45:06.555Z,22.75
2018-05-28T05:47:08.604Z,22.49
2018-05-28T05:48:08.018Z,22.51
2018-05-28T05:50:05.002Z,22.52
2018-05-28T05:51:05.505Z,22.54
2018-05-28T05:53:03.453Z,22.59
2018-05-28T05:54:03.119Z,22.63
2018-05-28T05:56:02.659Z,22.73
2018-05-28T05:57:01.053Z,22.76
2018-05-28T05:59:00.150Z,22.94
2018-05-28T06:00:01.063Z,22.85
2018-05-28T06:01:57.183Z,22.96
2018-05-28T06:02:57.180Z,23.15
2018-05-28T06:04:53.168Z,23.00
2018-05-28T06:05:53.168Z,23.10
2018-05-28T06:07:51.310Z,23.19
2018-05-28T06:08:51.310Z,23.26
2018-05-28T06:10:52.815Z,23.26
2018-05-28T06:11:51.795Z,23.24
2018-05-28T06:13:51.281Z,23.21
2018-05-28T06:14:49.770Z,23.14
2018-05-28T06:16:50.263Z,23.15
2018-05-28T06:17:50.770Z,23.12
2018-05-28T06:19:51.354Z,22.94
2018-05-28T06:20:50.725Z,23.12
2018-05-28T06:22:47.159Z,23.22
2018-05-28T06:23:45.205Z,23.22
2018-05-28T06:25:41.660Z,23.22
2018-05-28T06:26:41.710Z,23.22
2018-05-28T06:28:40.660Z,23.38
2018-05-28T06:29:40.061Z,23.38
2018-05-28T06:31:37.076Z,23.34
2018-05-28T06:32:37.089Z,23.45
2018-05-28T06:34:35.084Z,23.32
2018-05-28T06:35:35.053Z,23.38
2018-05-28T06:37:31.041Z,23.47
2018-05-28T06:38:31.047Z,23.57
2018-05-28T06:40:29.490Z,23.62
2018-05-28T06:41:26.997Z,23.52
2018-05-28T06:43:25.945Z,23.45
2018-05-28T06:44:25.124Z,23.44
2018-05-28T06:46:24.099Z,23.47
2018-05-28T06:47:24.113Z,23.50
2018-05-28T06:49:21.119Z,23.67
2018-05-28T06:50:21.142Z,23.75
2018-05-28T06:52:19.294Z,23.66
2018-05-28T06:53:19.302Z,23.67
2018-05-28T06:55:15.269Z,23.66
2018-05-28T06:56:15.275Z,23.75
2018-05-28T06:58:11.228Z,23.70
2018-05-28T06:59:11.218Z,23.72
2018-05-28T07:01:07.677Z,23.77
2018-05-28T07:02:07.714Z,23.64
2018-05-28T07:04:05.669Z,23.70
2018-05-28T07:05:05.328Z,23.72
2018-05-28T07:07:03.835Z,23.71
2018-05-28T07:08:03.295Z,23.77
2018-05-28T07:10:01.244Z,23.71
2018-05-28T07:10:59.734Z,23.81
2018-05-28T07:12:57.219Z,23.77
2018-05-28T07:13:57.228Z,23.74
2018-05-28T07:15:53.686Z,23.82
2018-05-28T07:16:53.207Z,23.84
2018-05-28T07:18:49.706Z,23.75
2018-05-28T07:19:50.664Z,23.82
2018-05-28T07:21:45.133Z,23.81
2018-05-28T07:22:45.616Z,23.82
2018-05-28T07:24:41.080Z,23.75
2018-05-28T07:25:41.076Z,23.75
2018-05-28T07:27:37.090Z,23.81
2018-05-28T07:28:37.053Z,23.89
2018-05-28T07:30:35.484Z,24.11
2018-05-28T07:31:34.991Z,24.22
2018-05-28T07:33:30.985Z,24.26
2018-05-28T07:34:31.962Z,24.37
2018-05-28T07:36:28.978Z,24.33
2018-05-28T07:37:30.867Z,24.26
2018-05-28T07:39:25.445Z,24.44
2018-05-28T07:40:24.920Z,24.49
2018-05-28T07:42:20.890Z,24.54
2018-05-28T07:43:21.818Z,24.66
2018-05-28T07:45:16.845Z,24.82
2018-05-28T07:46:16.871Z,24.78
2018-05-28T07:48:12.853Z,24.75
2018-05-28T07:49:13.819Z,24.74
2018-05-28T07:51:08.750Z,24.69
2018-05-28T07:52:08.761Z,24.69
2018-05-28T07:54:05.751Z,24.61
2018-05-28T07:55:04.828Z,24.80
2018-05-28T07:57:03.722Z,24.93
2018-05-28T07:58:02.896Z,24.90
2018-05-28T07:59:58.867Z,25.00
2018-05-28T08:00:58.856Z,25.07
2018-05-28T08:02:55.393Z,25.17
2018-05-28T08:03:54.848Z,25.23
2018-05-28T08:05:50.803Z,25.26
2018-05-28T08:06:51.301Z,25.09
2018-05-28T08:08:46.767Z,25.19
2018-05-28T08:09:46.778Z,25.27
2018-05-28T08:11:43.244Z,25.33
2018-05-28T08:12:42.710Z,25.45
2018-05-28T08:14:38.649Z,25.51
2018-05-28T08:15:38.665Z,25.54
2018-05-28T08:17:34.653Z,25.69
2018-05-28T08:18:34.645Z,25.63
2018-05-28T08:20:31.089Z,25.69
2018-05-28T08:21:31.089Z,25.74
2018-05-28T08:23:28.047Z,25.81
2018-05-28T08:24:27.549Z,25.86
2018-05-28T08:26:23.535Z,25.91
2018-05-28T08:27:23.512Z,25.76
2018-05-28T08:29:19.515Z,25.60
2018-05-28T08:30:19.507Z,25.56
2018-05-28T08:32:15.428Z,25.62
2018-05-28T08:33:15.450Z,25.66
2018-05-28T08:35:11.942Z,25.81
2018-05-28T08:36:11.510Z,25.94
2018-05-28T08:38:09.404Z,26.04
2018-05-28T08:39:08.885Z,26.20
2018-05-28T08:41:05.373Z,26.31
2018-05-28T08:42:04.318Z,26.32
2018-05-28T08:44:00.310Z,26.30
2018-05-28T08:45:00.354Z,26.27
2018-05-28T08:46:56.290Z,26.38
2018-05-28T08:47:57.278Z,26.27
2018-05-28T08:49:55.261Z,26.31
2018-05-28T08:50:54.418Z,26.39
2018-05-28T08:52:51.385Z,26.37
2018-05-28T08:53:50.429Z,26.41
2018-05-28T08:55:48.915Z,26.39
2018-05-28T08:56:48.578Z,26.45
2018-05-28T08:58:44.540Z,26.32
2018-05-28T08:59:44.538Z,26.32
2018-05-28T09:01:41.983Z,26.19
2018-05-28T09:02:40.463Z,26.17
2018-05-28T09:04:36.434Z,26.42
2018-05-28T09:05:37.432Z,26.34
2018-05-28T09:07:33.407Z,26.68
2018-05-28T09:08:33.404Z,26.63
2018-05-28T09:10:28.417Z,26.79
2018-05-28T09:11:29.394Z,26.84
2018-05-28T09:13:26.369Z,26.99
2018-05-28T09:14:26.367Z,27.09
2018-05-28T09:16:22.344Z,27.01
2018-05-28T09:17:22.327Z,27.08
2018-05-28T09:19:18.311Z,27.23
2018-05-28T09:20:18.328Z,27.37
2018-05-28T09:22:14.347Z,27.45
2018-05-28T09:23:14.285Z,27.37
2018-05-28T09:25:10.257Z,27.41
2018-05-28T09:26:10.255Z,27.45
2018-05-28T09:28:06.221Z,27.45
2018-05-28T09:29:06.246Z,27.33
2018-05-28T09:31:04.180Z,27.48
2018-05-28T09:32:04.227Z,27.34
2018-05-28T09:34:01.671Z,27.38
2018-05-28T09:35:00.239Z,27.46
2018-05-28T09:36:56.674Z,27.51
2018-05-28T09:37:56.606Z,27.48
2018-05-28T09:39:52.151Z,27.49
2018-05-28T09:40:52.068Z,27.57
2018-05-28T09:42:50.071Z,27.51
2018-05-28T09:43:50.046Z,27.45
2018-05-28T09:45:50.026Z,27.48
2018-05-28T09:46:48.241Z,27.53
2018-05-28T09:48:44.239Z,27.55
2018-05-28T09:49:44.693Z,27.64
2018-05-28T09:51:42.162Z,27.81
2018-05-28T09:52:42.097Z,27.76
2018-05-28T09:54:38.074Z,27.55
2018-05-28T09:55:38.573Z,27.51
2018-05-28T09:57:36.062Z,27.57
2018-05-28T09:58:34.089Z,27.66
2018-05-28T10:00:32.542Z,27.76
2018-05-28T10:01:32.038Z,27.84
2018-05-28T10:03:30.528Z,27.71
2018-05-28T10:04:30.013Z,27.74
2018-05-28T10:06:25.981Z,27.74
2018-05-28T10:07:26.005Z,27.76
2018-05-28T10:09:21.958Z,27.68
2018-05-28T10:10:22.018Z,27.80
2018-05-28T10:12:21.959Z,27.80
2018-05-28T10:13:20.006Z,27.93
2018-05-28T10:15:18.085Z,28.05
2018-05-28T10:16:18.103Z,28.14
2018-05-28T10:18:14.606Z,28.26
2018-05-28T10:19:14.083Z,28.23
2018-05-28T10:21:10.059Z,28.01
2018-05-28T10:22:10.548Z,28.11
2018-05-28T10:24:08.536Z,28.11
2018-05-28T10:25:08.519Z,28.08
2018-05-28T10:27:03.996Z,28.02
2018-05-28T10:28:05.012Z,28.08
2018-05-28T10:30:01.969Z,28.23
2018-05-28T10:31:00.491Z,28.17
2018-05-28T10:32:57.962Z,28.31
2018-05-28T10:33:57.947Z,28.30
2018-05-28T10:35:56.414Z,28.41
2018-05-28T10:36:57.947Z,28.54
2018-05-28T10:38:55.897Z,28.53
2018-05-28T10:39:53.918Z,28.54
2018-05-28T10:41:56.405Z,28.55
2018-05-28T10:42:55.401Z,28.53
2018-05-28T10:44:51.405Z,28.79
2018-05-28T10:45:51.363Z,28.88
2018-05-28T10:47:50.366Z,29.01
2018-05-28T10:48:49.324Z,29.13
2018-05-28T10:50:47.327Z,29.32
2018-05-28T10:51:47.315Z,29.28
2018-05-28T10:53:47.806Z,29.30
2018-05-28T10:54:48.890Z,29.30
2018-05-28T10:56:45.761Z,29.35
2018-05-28T10:57:45.799Z,29.32
2018-05-28T10:59:47.246Z,29.17
2018-05-28T11:00:47.252Z,29.20
2018-05-28T11:02:42.236Z,29.11
2018-05-28T11:03:42.242Z,29.06
2018-05-28T11:05:42.720Z,29.03
2018-05-28T11:06:42.888Z,29.11
2018-05-28T11:08:44.226Z,29.10
2018-05-28T11:09:43.211Z,28.97
2018-05-28T11:11:39.189Z,29.11
2018-05-28T11:12:39.142Z,29.08
2018-05-28T11:14:35.134Z,29.05
2018-05-28T11:15:35.608Z,29.03
2018-05-28T11:17:33.261Z,29.15
2018-05-28T11:18:34.076Z,29.10
2018-05-28T11:20:31.266Z,29.02
2018-05-28T11:21:31.301Z,29.06
2018-05-28T11:23:32.249Z,29.10
2018-05-28T11:24:31.757Z,29.17
2018-05-28T11:26:28.254Z,29.28
2018-05-28T11:27:28.224Z,29.35
2018-05-28T11:29:27.659Z,29.35
2018-05-28T11:30:25.675Z,29.43
2018-05-28T11:32:22.174Z,29.54
2018-05-28T11:33:22.655Z,29.40
2018-05-28T11:35:19.771Z,29.29
2018-05-28T11:36:19.828Z,29.28
2018-05-28T11:38:21.265Z,29.36
2018-05-28T11:39:22.315Z,29.42
2018-05-28T11:41:21.241Z,29.54
2018-05-28T11:42:20.740Z,29.54
2018-05-28T11:44:21.287Z,29.61
2018-05-28T11:45:22.218Z,29.70
2018-05-28T11:47:17.178Z,29.92
2018-05-28T11:49:33.141Z,29.95
2018-05-28T11:50:33.131Z,29.95
2018-05-28T11:52:31.193Z,29.89
2018-05-28T11:53:31.116Z,29.97
2018-05-28T11:55:27.160Z,30.32
2018-05-28T11:57:43.580Z,30.21
2018-05-28T11:58:43.061Z,30.28
2018-05-28T12:00:42.104Z,30.31
2018-05-28T12:01:42.057Z,30.29
2018-05-28T12:03:39.733Z,30.39
2018-05-28T12:04:39.256Z,30.48
2018-05-28T12:06:35.197Z,30.49
2018-05-28T12:07:35.736Z,30.40
2018-05-28T12:09:34.010Z,30.34
2018-05-28T12:10:34.014Z,30.34
2018-05-28T12:12:32.021Z,30.45
2018-05-28T12:13:32.007Z,30.49
2018-05-28T12:15:29.973Z,30.47
2018-05-28T12:16:33.010Z,30.48
2018-05-28T12:18:26.464Z,30.39
2018-05-28T12:19:26.000Z,30.39
2018-05-28T12:21:24.057Z,30.40
2018-05-28T12:22:24.203Z,30.29
2018-05-28T12:24:22.602Z,30.28
2018-05-28T12:25:23.048Z,30.37
2018-05-28T12:27:20.249Z,30.40
2018-05-28T12:28:21.027Z,30.32
2018-05-28T12:30:18.744Z,30.32
2018-05-28T12:31:19.160Z,30.44
2018-05-28T12:33:18.377Z,30.37
2018-05-28T12:34:16.559Z,30.45
2018-05-28T12:36:17.015Z,30.64
2018-05-28T12:37:17.547Z,30.78
2018-05-28T12:39:15.018Z,30.71
2018-05-28T12:40:15.004Z,30.86
2018-05-28T12:42:17.120Z,30.79
2018-05-28T12:43:16.504Z,30.85
2018-05-28T12:45:14.508Z,30.71
2018-05-28T12:46:14.483Z,30.60
2018-05-28T12:48:14.070Z,30.57
2018-05-28T12:49:12.641Z,30.57
2018-05-28T12:51:09.129Z,30.70
2018-05-28T12:52:08.618Z,30.78
2018-05-28T12:54:07.055Z,30.82
2018-05-28T12:55:06.554Z,30.96
2018-05-28T12:58:39.398Z,31.19
2018-05-28T12:59:39.403Z,31.21
2018-05-28T13:01:36.357Z,31.23
2018-05-28T13:02:35.322Z,31.13
2018-05-28T13:04:33.299Z,31.40
2018-05-28T13:05:33.311Z,31.52
2018-05-28T13:07:29.772Z,31.75
2018-05-28T13:08:29.296Z,31.88
2018-05-28T13:10:25.271Z,31.91
2018-05-28T13:12:44.146Z,31.53
2018-05-28T13:13:43.221Z,31.47
2018-05-28T13:15:44.711Z,31.49
2018-05-28T13:16:43.745Z,31.52
2018-05-28T13:18:44.222Z,31.77
2018-05-28T13:19:47.242Z,31.97
2018-05-28T13:21:44.740Z,31.94
2018-05-28T13:22:44.727Z,31.93
2018-05-28T13:24:45.177Z,31.67
2018-05-28T13:25:45.147Z,31.52
2018-05-28T13:27:47.698Z,31.50
2018-05-28T13:28:47.692Z,31.62
2018-05-28T13:30:49.620Z,31.82
2018-05-28T13:31:49.121Z,31.91
2018-05-28T13:33:50.236Z,31.93
2018-05-28T13:34:47.765Z,32.05
2018-05-28T13:36:48.702Z,31.97
2018-05-28T13:37:49.217Z,32.00
2018-05-28T13:39:47.736Z,31.95
2018-05-28T13:40:47.270Z,31.95
2018-05-28T13:42:48.687Z,31.75
2018-05-28T13:43:47.684Z,31.82
2018-05-28T13:45:45.926Z,31.87
2018-05-28T13:46:47.706Z,31.78
2018-05-28T13:48:42.863Z,31.71
2018-05-28T13:49:42.853Z,31.59
2018-05-28T13:51:38.851Z,31.58
2018-05-28T13:52:39.314Z,31.58
2018-05-28T13:54:37.293Z,31.81
2018-05-28T13:55:36.958Z,31.87
2018-05-28T13:57:33.476Z,32.08
2018-05-28T13:58:32.914Z,32.20
2018-05-28T14:00:32.824Z,32.37
2018-05-28T14:01:28.925Z,32.38
2018-05-28T14:03:29.449Z,32.46
2018-05-28T14:06:28.830Z,32.53
2018-05-28T14:08:44.384Z,32.68
2018-05-28T14:09:46.394Z,32.57
2018-05-28T14:11:39.818Z,32.68
2018-05-28T14:12:39.839Z,32.68
2018-05-28T14:14:39.811Z,32.69
2018-05-28T14:18:32.604Z,32.74
2018-05-28T14:20:49.025Z,32.50
2018-05-28T14:21:51.016Z,32.53
2018-05-28T14:24:03.611Z,32.61
2018-05-28T14:24:55.541Z,32.65
2018-05-28T14:26:44.542Z,32.57
2018-05-28T14:29:00.547Z,32.43
2018-05-28T14:30:01.570Z,32.46
2018-05-28T14:31:56.997Z,32.19
2018-05-28T14:32:57.484Z,32.17
2018-05-28T14:34:54.986Z,32.00
2018-05-28T14:35:54.465Z,32.01
2018-05-28T14:37:52.592Z,31.88
2018-05-28T14:38:52.638Z,31.77
2018-05-28T14:40:50.581Z,31.72
2018-05-28T14:41:50.625Z,31.72
2018-05-28T14:43:49.538Z,31.70
2018-05-28T14:44:48.756Z,31.67
2018-05-28T14:46:49.718Z,31.68
2018-05-28T14:47:49.245Z,31.49
2018-05-28T14:49:47.189Z,31.40
2018-05-28T14:50:47.204Z,31.40
2018-05-28T14:52:45.146Z,31.36
2018-05-28T14:53:45.159Z,31.36
2018-05-28T14:55:41.157Z,31.28
2018-05-28T14:56:42.147Z,31.30
2018-05-28T14:58:37.191Z,31.25
2018-05-28T14:59:37.145Z,31.18
2018-05-28T15:01:33.116Z,31.10
2018-05-28T15:02:34.616Z,31.03
2018-05-28T15:04:29.077Z,30.96
2018-05-28T15:05:29.068Z,30.97
2018-05-28T15:07:28.035Z,30.89
2018-05-28T15:08:27.035Z,30.81
2018-05-28T15:10:23.011Z,30.48
2018-05-28T15:11:23.006Z,30.34
2018-05-28T15:13:18.998Z,30.22
2018-05-28T15:14:18.984Z,30.16
2018-05-28T15:16:17.954Z,30.18
2018-05-28T15:17:16.963Z,30.28
2018-05-28T15:19:11.969Z,30.35
2018-05-28T15:20:11.471Z,30.31
2018-05-28T15:22:07.448Z,30.39
2018-05-28T15:23:07.431Z,30.42
2018-05-28T15:25:03.425Z,30.34
2018-05-28T15:26:03.422Z,30.39
2018-05-28T15:28:01.445Z,30.49
2018-05-28T15:29:01.502Z,30.45
2018-05-28T15:30:57.384Z,30.35
2018-05-28T15:31:57.394Z,30.48
2018-05-28T15:33:53.406Z,30.26
2018-05-28T15:34:53.385Z,30.29
2018-05-28T15:36:49.361Z,30.26
2018-05-28T15:37:50.851Z,30.16
2018-05-28T15:39:45.318Z,30.13
2018-05-28T15:40:45.361Z,29.98
2018-05-28T15:42:39.822Z,29.87
2018-05-28T15:43:39.819Z,29.82
2018-05-28T15:45:36.284Z,29.79
2018-05-28T15:46:35.794Z,29.66
2018-05-28T15:48:30.369Z,29.70
2018-05-28T15:49:30.301Z,29.70
2018-05-28T15:51:26.768Z,29.69
2018-05-28T15:52:26.287Z,29.79
2018-05-28T15:54:22.246Z,29.82
2018-05-28T15:55:22.236Z,29.77
2018-05-28T15:57:20.696Z,29.82
2018-05-28T15:58:18.228Z,29.76
2018-05-28T16:00:14.240Z,29.65
2018-05-28T16:01:14.199Z,29.65
2018-05-28T16:03:10.211Z,29.60
2018-05-28T16:04:10.194Z,29.66
2018-05-28T16:06:06.665Z,29.66
2018-05-28T16:07:06.655Z,29.66
2018-05-28T16:09:03.638Z,29.61
2018-05-28T16:10:02.140Z,29.66
2018-05-28T16:12:00.124Z,29.57
2018-05-28T16:13:00.110Z,29.58
2018-05-28T16:14:56.147Z,29.65
2018-05-28T16:15:57.077Z,29.66
2018-05-28T16:17:57.176Z,29.67
2018-05-28T16:20:17.529Z,29.75
2018-05-28T16:21:18.524Z,29.70
2018-05-28T16:23:14.700Z,29.79
2018-05-28T16:24:17.511Z,29.76
2018-05-28T16:26:11.199Z,29.70
2018-05-28T16:27:10.677Z,29.65
2018-05-28T16:31:37.871Z,29.76
2018-05-28T16:32:31.236Z,29.76
2018-05-28T16:35:25.209Z,29.92
2018-05-28T16:37:22.985Z,30.03
2018-05-28T16:38:18.567Z,30.07
2018-05-28T16:40:16.657Z,30.16
2018-05-28T16:41:16.601Z,30.22
2018-05-28T16:43:14.468Z,30.35
2018-05-28T16:44:13.458Z,30.34
2018-05-28T16:48:28.635Z,31.15
2018-05-28T16:49:31.332Z,31.25
2018-05-28T16:51:24.627Z,30.93
2018-05-28T16:54:45.482Z,30.60
2018-05-28T16:58:15.365Z,30.42
2018-05-28T17:01:30.828Z,30.29
2018-05-28T17:04:25.802Z,30.22
2018-05-28T17:06:28.191Z,30.09
2018-05-28T17:07:21.773Z,30.03
2018-05-28T17:14:04.700Z,29.69
2018-05-28T17:20:56.706Z,29.57
2018-05-28T17:23:14.676Z,29.54
2018-05-28T17:27:05.730Z,29.52
2018-05-28T17:28:12.708Z,29.50
2018-05-28T17:30:06.661Z,29.38
2018-05-28T17:31:06.186Z,29.35
2018-05-28T17:33:04.159Z,29.29
2018-05-28T17:34:04.192Z,29.26
2018-05-28T17:36:00.639Z,29.32
2018-05-28T17:37:00.180Z,29.28
2018-05-28T17:38:58.168Z,29.26
2018-05-28T17:39:58.183Z,29.26
2018-05-28T17:41:56.692Z,29.08
2018-05-28T17:42:54.145Z,29.11
2018-05-28T17:44:52.633Z,29.10
2018-05-28T17:45:53.122Z,29.18
2018-05-28T17:47:52.194Z,29.17
2018-05-28T17:48:50.275Z,29.05
2018-05-28T17:50:46.260Z,29.11
2018-05-28T17:51:46.273Z,29.18
2018-05-28T17:53:44.748Z,29.10
2018-05-28T17:54:44.247Z,29.06
2018-05-28T17:56:44.732Z,29.06
2018-05-28T17:57:45.284Z,28.98
2018-05-28T17:59:41.714Z,28.94
2018-05-28T18:00:41.724Z,29.11
2018-05-28T18:02:37.755Z,29.10
2018-05-28T18:03:37.703Z,29.02
2018-05-28T18:05:34.709Z,28.97
2018-05-28T18:06:34.666Z,29.05
2018-05-28T18:08:28.194Z,28.98
2018-05-28T18:09:28.188Z,28.91
2018-05-28T18:11:24.091Z,28.82
2018-05-28T18:12:24.097Z,28.78
2018-05-28T18:14:21.094Z,28.68
2018-05-28T18:15:22.061Z,28.64
2018-05-28T18:17:20.166Z,28.54
2018-05-28T18:18:19.394Z,28.53
2018-05-28T18:20:18.366Z,28.38
2018-05-28T18:21:17.559Z,28.41
2018-05-28T18:23:19.060Z,28.43
2018-05-28T18:24:18.046Z,28.45
2018-05-28T18:26:16.007Z,28.43
2018-05-28T18:27:16.016Z,28.38
2018-05-28T18:29:13.994Z,28.42
2018-05-28T18:30:13.997Z,28.38
2018-05-28T18:32:12.449Z,28.33
2018-05-28T18:33:12.027Z,28.31
2018-05-28T18:35:17.995Z,28.33
2018-05-28T18:36:12.936Z,28.28
2018-05-28T18:38:08.443Z,28.24
2018-05-28T18:39:09.412Z,28.21
2018-05-28T18:41:09.474Z,28.06
2018-05-28T18:42:06.901Z,28.05
2018-05-28T18:44:04.582Z,28.03
2018-05-28T18:45:04.553Z,28.09
2018-05-28T18:47:02.549Z,28.02
2018-05-28T18:48:02.533Z,28.01
2018-05-28T18:49:58.563Z,27.93
2018-05-28T18:50:58.496Z,27.91
2018-05-28T18:52:59.972Z,27.94
2018-05-28T18:53:58.979Z,27.90
2018-05-28T18:55:59.435Z,27.93
2018-05-28T18:56:59.540Z,27.91
2018-05-28T18:58:55.419Z,27.96
2018-05-28T18:59:55.391Z,27.84
2018-05-28T19:01:51.315Z,27.79
2018-05-28T19:02:51.874Z,27.76
2018-05-28T19:04:54.318Z,27.76
2018-05-28T19:05:53.354Z,27.71
2018-05-28T19:07:50.656Z,27.69
2018-05-28T19:08:52.539Z,27.65
2018-05-28T19:10:49.048Z,27.51
2018-05-28T19:11:48.546Z,27.52
2018-05-28T19:13:47.038Z,27.49
2018-05-28T19:14:46.691Z,27.42
2018-05-28T19:16:45.658Z,27.38
2018-05-28T19:17:44.708Z,27.43
2018-05-28T19:19:42.801Z,27.38
2018-05-28T19:20:42.825Z,27.38
2018-05-28T19:22:41.310Z,27.34
2018-05-28T19:24:55.249Z,27.30
2018-05-28T19:27:12.742Z,27.21
2018-05-28T19:28:14.722Z,27.13
2018-05-28T19:30:14.703Z,27.11
2018-05-28T19:31:16.188Z,27.04
2018-05-28T19:33:09.274Z,27.01
2018-05-28T19:34:09.172Z,26.84
2018-05-28T19:36:08.153Z,26.81
2018-05-28T19:37:07.186Z,26.74
2018-05-28T19:39:06.057Z,26.63
2018-05-28T19:40:05.318Z,26.74
2018-05-28T19:42:06.296Z,26.61